createdAt,value
2023-04-30T00:00:10.930Z,10.55
2023-04-30T00:03:13.011Z,13.70
2023-04-30T00:06:15.815Z,11.85
2023-04-30T00:09:17.829Z,13.43
2023-04-30T00:12:19.833Z,12.43
2023-04-30T00:15:21.907Z,11.77
2023-04-30T00:18:23.948Z,13.90
2023-04-30T00:21:26.325Z,13.85
2023-04-30T00:24:28.825Z,15.05
2023-04-30T00:27:31.930Z,15.27
2023-04-30T00:30:33.942Z,14.63
2023-04-30T00:33:36.025Z,15.02
2023-04-30T00:36:38.106Z,13.10
2023-04-30T00:39:40.361Z,15.73
2023-04-30T00:42:42.421Z,13.37
2023-04-30T00:45:44.593Z,13.30
2023-04-30T00:48:46.650Z,14.95
2023-04-30T00:51:48.733Z,12.35
2023-04-30T00:54:53.665Z,11.55
2023-04-30T00:57:55.820Z,12.03
2023-04-30T01:00:58.139Z,12.60
2023-04-30T01:04:01.238Z,11.88
2023-04-30T01:07:03.506Z,12.70
2023-04-30T01:10:06.096Z,12.10
2023-04-30T01:13:17.853Z,14.10
2023-04-30T01:16:24.449Z,13.02
2023-04-30T01:19:35.944Z,13.02
2023-04-30T01:23:13.578Z,14.25
2023-04-30T01:26:15.553Z,14.77
2023-04-30T01:29:19.151Z,13.10
2023-04-30T01:32:21.229Z,14.73
2023-04-30T01:35:27.126Z,14.30
2023-04-30T01:38:45.335Z,13.77
2023-04-30T01:41:54.882Z,14.00
2023-04-30T01:44:59.775Z,13.98
2023-04-30T01:48:08.316Z,13.68
2023-04-30T01:51:16.404Z,13.37
2023-04-30T01:54:24.448Z,12.77
2023-04-30T01:57:32.264Z,13.52
2023-04-30T02:00:34.308Z,13.45
2023-04-30T02:03:36.488Z,12.88
2023-04-30T02:06:38.756Z,13.17
2023-04-30T02:09:40.997Z,12.93
2023-04-30T02:12:43.064Z,12.75
2023-04-30T02:15:45.242Z,13.35
2023-04-30T02:18:47.607Z,12.63
2023-04-30T02:21:49.754Z,13.15
2023-04-30T02:24:53.684Z,12.70
2023-04-30T02:27:55.691Z,13.18
2023-04-30T02:30:57.931Z,12.37
2023-04-30T02:33:59.929Z,12.75
2023-04-30T02:37:03.274Z,12.35
2023-04-30T02:40:06.557Z,12.60
2023-04-30T02:43:08.849Z,12.57
2023-04-30T02:46:11.268Z,11.57
2023-04-30T02:49:13.555Z,12.75
2023-04-30T02:52:15.900Z,12.27
2023-04-30T02:55:17.960Z,12.77
2023-04-30T02:58:19.963Z,11.43
2023-04-30T03:01:22.070Z,12.60
2023-04-30T03:04:24.109Z,12.68
2023-04-30T03:07:26.153Z,12.38
2023-04-30T03:10:28.166Z,12.60
2023-04-30T03:13:30.227Z,12.50
2023-04-30T03:16:32.408Z,12.85
2023-04-30T03:19:34.483Z,13.27
2023-04-30T03:22:38.587Z,13.10
2023-04-30T03:25:40.567Z,13.97
2023-04-30T03:28:42.590Z,12.75
2023-04-30T03:31:44.655Z,14.50
2023-04-30T03:34:46.788Z,14.07
2023-04-30T03:37:48.862Z,12.65
2023-04-30T03:40:50.853Z,13.97
2023-04-30T03:43:52.902Z,14.68
2023-04-30T03:46:55.042Z,12.50
2023-04-30T03:49:57.217Z,12.35
2023-04-30T03:52:59.336Z,12.43
2023-04-30T03:56:01.580Z,12.18
2023-04-30T03:59:03.632Z,13.20
2023-04-30T04:02:07.431Z,12.55
2023-04-30T04:05:09.722Z,12.47
2023-04-30T04:08:11.706Z,12.60
2023-04-30T04:11:13.944Z,12.20
2023-04-30T04:14:16.741Z,11.90
2023-04-30T04:17:19.288Z,13.15
2023-04-30T04:20:21.490Z,12.83
2023-04-30T04:23:23.497Z,14.00
2023-04-30T04:26:26.092Z,13.60
2023-04-30T04:29:28.121Z,14.40
2023-04-30T04:32:30.792Z,15.10
2023-04-30T04:35:33.324Z,13.60
2023-04-30T04:38:35.516Z,13.93
2023-04-30T04:41:38.859Z,12.60
2023-04-30T04:44:42.030Z,12.10
2023-04-30T04:47:44.159Z,13.05
2023-04-30T04:50:46.281Z,11.52
2023-04-30T04:53:48.262Z,12.82
2023-04-30T04:56:50.376Z,11.63
2023-04-30T04:59:52.709Z,11.03
2023-04-30T05:02:55.368Z,11.65
2023-04-30T05:05:57.677Z,11.73
2023-04-30T05:09:01.072Z,12.02
2023-04-30T05:12:04.306Z,12.67
2023-04-30T05:15:06.734Z,11.30
2023-04-30T05:18:08.760Z,11.10
2023-04-30T05:21:10.865Z,11.15
2023-04-30T05:24:12.878Z,11.45
2023-04-30T05:27:15.035Z,10.57
2023-04-30T05:30:17.342Z,9.93
2023-04-30T05:33:19.378Z,10.02
2023-04-30T05:36:21.358Z,10.68
2023-04-30T05:39:23.405Z,10.23
2023-04-30T05:42:25.508Z,9.77
2023-04-30T05:45:27.876Z,11.65
2023-04-30T05:48:30.565Z,11.52
2023-04-30T05:51:32.765Z,9.40
2023-04-30T05:54:34.961Z,10.15
2023-04-30T05:57:37.173Z,13.53
2023-04-30T06:00:39.683Z,10.00
2023-04-30T06:03:41.806Z,9.50
2023-04-30T06:06:45.180Z,10.52
2023-04-30T06:09:47.343Z,9.60
2023-04-30T06:12:49.435Z,9.43
2023-04-30T06:15:51.564Z,9.43
2023-04-30T06:18:54.082Z,9.10
2023-04-30T06:21:56.219Z,9.00
2023-04-30T06:24:58.335Z,8.70
2023-04-30T06:28:00.417Z,8.33
2023-04-30T06:31:02.391Z,9.32
2023-04-30T06:34:04.462Z,8.65
2023-04-30T06:37:06.515Z,8.93
2023-04-30T06:40:08.782Z,9.75
2023-04-30T06:43:11.011Z,10.13
2023-04-30T06:46:13.046Z,8.32
2023-04-30T06:49:15.226Z,9.30
2023-04-30T06:52:17.210Z,7.90
2023-04-30T06:55:19.257Z,8.82
2023-04-30T06:58:21.265Z,8.40
2023-04-30T07:01:23.400Z,9.55
2023-04-30T07:04:26.287Z,9.05
2023-04-30T07:07:28.370Z,8.88
2023-04-30T07:10:31.294Z,7.93
2023-04-30T07:13:33.300Z,7.63
2023-04-30T07:16:35.424Z,8.57
2023-04-30T07:19:37.509Z,7.60
2023-04-30T07:22:39.570Z,6.95
2023-04-30T07:25:41.761Z,8.02
2023-04-30T07:28:43.963Z,8.43
2023-04-30T07:31:46.029Z,8.82
2023-04-30T07:34:48.718Z,9.35
2023-04-30T07:37:50.814Z,8.77
2023-04-30T07:40:52.918Z,9.70
2023-04-30T07:43:54.956Z,9.53
2023-04-30T07:46:57.049Z,9.30
2023-04-30T07:49:59.181Z,10.07
2023-04-30T07:53:01.973Z,8.80
2023-04-30T07:56:04.632Z,9.55
2023-04-30T07:59:06.660Z,8.47
2023-04-30T08:02:08.990Z,9.30
2023-04-30T08:05:11.350Z,8.23
2023-04-30T08:08:13.486Z,8.25
2023-04-30T08:11:16.340Z,9.40
2023-04-30T08:14:18.297Z,8.70
2023-04-30T08:17:20.317Z,6.32
2023-04-30T08:20:23.757Z,5.97
2023-04-30T08:23:25.974Z,5.15
2023-04-30T08:26:28.078Z,5.05
2023-04-30T08:29:30.453Z,5.00
2023-04-30T08:32:34.516Z,4.88
2023-04-30T08:35:36.785Z,4.80
2023-04-30T08:38:38.825Z,3.45
2023-04-30T08:41:43.751Z,3.17
2023-04-30T08:44:47.518Z,3.53
2023-04-30T08:47:49.959Z,4.32
2023-04-30T08:50:52.405Z,4.47
2023-04-30T08:53:55.261Z,4.05
2023-04-30T08:56:57.327Z,3.03
2023-04-30T09:00:00.580Z,3.50
2023-04-30T09:03:02.652Z,3.13
2023-04-30T09:06:05.142Z,3.33
2023-04-30T09:09:11.603Z,3.40
2023-04-30T09:12:20.497Z,3.47
2023-04-30T09:15:22.890Z,2.67
2023-04-30T09:18:24.848Z,1.92
2023-04-30T09:21:33.212Z,4.05
2023-04-30T09:24:46.159Z,2.60
2023-04-30T09:27:48.315Z,2.88
2023-04-30T09:30:51.039Z,3.40
2023-04-30T09:33:53.807Z,3.05
2023-04-30T09:36:56.633Z,3.20
2023-04-30T09:39:58.862Z,2.50
2023-04-30T09:43:00.916Z,3.00
2023-04-30T09:46:03.916Z,2.77
2023-04-30T09:49:07.548Z,2.30
2023-04-30T09:52:09.853Z,2.40
2023-04-30T09:55:11.982Z,2.45
2023-04-30T09:58:14.801Z,2.90
2023-04-30T10:01:18.211Z,3.07
2023-04-30T10:04:20.828Z,2.13
2023-04-30T10:07:24.574Z,2.72
2023-04-30T10:10:26.906Z,2.05
2023-04-30T10:13:31.454Z,2.70
2023-04-30T10:16:46.168Z,2.07
2023-04-30T10:19:49.067Z,2.28
2023-04-30T10:22:52.044Z,2.58
2023-04-30T10:25:54.146Z,1.83
2023-04-30T10:28:59.078Z,2.45
2023-04-30T10:32:01.462Z,2.30
2023-04-30T10:35:17.247Z,2.25
2023-04-30T10:38:23.235Z,2.20
2023-04-30T10:41:26.419Z,2.75
2023-04-30T10:44:28.480Z,2.30
2023-04-30T10:47:31.153Z,2.70
2023-04-30T10:50:33.441Z,2.75
2023-04-30T10:53:37.170Z,2.45
2023-04-30T10:56:39.242Z,2.30
2023-04-30T10:59:48.366Z,3.00
2023-04-30T11:02:56.237Z,2.77
2023-04-30T11:06:00.154Z,2.20
2023-04-30T11:09:03.969Z,2.38
2023-04-30T11:12:10.682Z,2.47
2023-04-30T11:15:13.666Z,3.00
2023-04-30T11:18:15.752Z,2.70
2023-04-30T11:21:21.346Z,3.50
2023-04-30T11:24:43.268Z,3.33
2023-04-30T11:27:45.753Z,2.35
2023-04-30T11:30:51.107Z,3.50
2023-04-30T11:33:55.644Z,3.70
2023-04-30T11:36:59.355Z,3.20
2023-04-30T11:40:02.535Z,3.88
2023-04-30T11:43:04.627Z,3.60
2023-04-30T11:46:08.497Z,3.35
2023-04-30T11:49:10.942Z,3.03
2023-04-30T11:52:13.902Z,3.25
2023-04-30T11:55:20.571Z,2.97
2023-04-30T11:58:23.187Z,3.08
2023-04-30T12:01:28.731Z,3.45
2023-04-30T12:04:30.830Z,3.17
2023-04-30T12:07:32.907Z,2.90
2023-04-30T12:10:36.075Z,2.58
2023-04-30T12:13:38.586Z,3.58
2023-04-30T12:16:42.261Z,2.67
2023-04-30T12:19:44.352Z,3.00
2023-04-30T12:22:46.531Z,2.20
2023-04-30T12:25:48.542Z,3.30
2023-04-30T12:28:51.434Z,2.78
2023-04-30T12:31:54.168Z,3.67
2023-04-30T12:35:01.646Z,3.20
2023-04-30T12:38:04.792Z,3.33
2023-04-30T12:41:06.870Z,2.50
2023-04-30T12:44:19.090Z,2.90
2023-04-30T12:47:21.345Z,3.92
2023-04-30T12:50:23.408Z,2.60
2023-04-30T12:53:25.635Z,3.10
2023-04-30T12:56:27.733Z,3.80
2023-04-30T12:59:30.496Z,3.08
2023-04-30T13:02:32.769Z,2.78
2023-04-30T13:05:34.820Z,2.40
2023-04-30T13:08:42.574Z,3.25
2023-04-30T13:11:52.714Z,3.20
2023-04-30T13:14:55.279Z,3.10
2023-04-30T13:17:57.379Z,3.47
2023-04-30T13:20:59.448Z,3.47
2023-04-30T13:24:01.824Z,3.00
2023-04-30T13:27:04.142Z,2.97
2023-04-30T13:30:06.465Z,3.22
2023-04-30T13:33:09.006Z,3.30
2023-04-30T13:36:11.136Z,2.33
2023-04-30T13:39:13.169Z,2.65
2023-04-30T13:42:15.202Z,2.85
2023-04-30T13:45:17.368Z,2.22
2023-04-30T13:48:19.487Z,2.33
2023-04-30T13:51:21.490Z,2.30
2023-04-30T13:54:23.493Z,2.65
2023-04-30T13:57:25.605Z,2.17
2023-04-30T14:00:27.625Z,2.17
2023-04-30T14:03:29.758Z,1.70
2023-04-30T14:06:32.187Z,1.93
2023-04-30T14:09:34.359Z,2.00
2023-04-30T14:12:36.490Z,2.10
2023-04-30T14:15:38.776Z,2.30
2023-04-30T14:18:40.776Z,3.08
2023-04-30T14:21:42.774Z,2.43
2023-04-30T14:24:44.898Z,2.80
2023-04-30T14:27:47.683Z,2.33
2023-04-30T14:30:49.739Z,2.65
2023-04-30T14:33:51.760Z,3.58
2023-04-30T14:36:53.772Z,4.33
2023-04-30T14:39:56.162Z,3.88
2023-04-30T14:42:58.385Z,4.05
2023-04-30T14:46:00.441Z,3.22
2023-04-30T14:49:02.508Z,3.40
2023-04-30T14:52:04.614Z,3.13
2023-04-30T14:55:06.849Z,3.47
2023-04-30T14:58:08.849Z,3.08
2023-04-30T15:01:10.919Z,3.47
2023-04-30T15:04:12.961Z,3.25
2023-04-30T15:07:15.066Z,3.30
2023-04-30T15:10:17.093Z,3.17
2023-04-30T15:13:19.111Z,3.15
2023-04-30T15:16:21.358Z,3.08
2023-04-30T15:19:24.236Z,3.42
2023-04-30T15:22:26.405Z,2.90
2023-04-30T15:25:28.487Z,2.65
2023-04-30T15:28:33.563Z,3.47
2023-04-30T15:31:35.707Z,3.40
2023-04-30T15:34:37.828Z,4.10
2023-04-30T15:37:39.846Z,3.67
2023-04-30T15:40:41.871Z,4.25
2023-04-30T15:43:43.941Z,3.78
2023-04-30T15:46:45.974Z,3.72
2023-04-30T15:49:48.753Z,4.40
2023-04-30T15:52:50.810Z,4.77
2023-04-30T15:55:53.355Z,4.75
2023-04-30T15:58:55.969Z,5.85
2023-04-30T16:01:58.151Z,5.63
2023-04-30T16:05:00.296Z,5.00
2023-04-30T16:08:02.310Z,4.80
2023-04-30T16:11:04.335Z,4.82
2023-04-30T16:14:06.799Z,4.80
2023-04-30T16:17:09.829Z,4.55
2023-04-30T16:20:12.149Z,4.40
2023-04-30T16:23:14.425Z,4.03
2023-04-30T16:26:17.624Z,4.15
2023-04-30T16:29:19.686Z,5.22
2023-04-30T16:32:21.718Z,2.63
2023-04-30T16:35:23.703Z,4.05
2023-04-30T16:38:25.821Z,3.57
2023-04-30T16:41:27.826Z,3.75
2023-04-30T16:44:29.806Z,3.95
2023-04-30T16:47:31.881Z,4.28
2023-04-30T16:50:33.921Z,6.93
2023-04-30T16:53:36.013Z,6.10
2023-04-30T16:56:37.949Z,4.43
2023-04-30T16:59:39.957Z,4.15
2023-04-30T17:02:42.638Z,3.58
2023-04-30T17:05:44.683Z,3.92
2023-04-30T17:08:47.262Z,4.33
2023-04-30T17:11:49.354Z,5.10
2023-04-30T17:14:52.259Z,4.55
2023-04-30T17:17:54.386Z,2.97
2023-04-30T17:20:56.555Z,3.15
2023-04-30T17:23:58.757Z,4.33
2023-04-30T17:27:01.161Z,3.92
2023-04-30T17:30:04.499Z,3.92
2023-04-30T17:33:06.984Z,4.13
2023-04-30T17:36:09.484Z,5.45
2023-04-30T17:39:11.520Z,4.77
2023-04-30T17:42:13.583Z,5.65
2023-04-30T17:45:15.635Z,6.07
2023-04-30T17:48:17.923Z,5.90
2023-04-30T17:51:19.986Z,5.97
2023-04-30T17:54:22.069Z,5.80
2023-04-30T17:57:24.582Z,6.22
2023-04-30T18:00:26.892Z,6.10
2023-04-30T18:03:29.409Z,4.97
2023-04-30T18:06:31.573Z,6.00
2023-04-30T18:09:33.671Z,5.33
2023-04-30T18:12:36.210Z,5.70
2023-04-30T18:15:38.226Z,5.40
2023-04-30T18:18:41.132Z,5.90
2023-04-30T18:21:43.507Z,6.00
2023-04-30T18:24:45.525Z,4.73
2023-04-30T18:27:47.568Z,5.18
2023-04-30T18:30:49.960Z,5.25
2023-04-30T18:33:51.968Z,4.88
2023-04-30T18:36:54.147Z,7.38
2023-04-30T18:39:56.686Z,7.23
2023-04-30T18:42:59.085Z,5.20
2023-04-30T18:46:01.173Z,5.20
2023-04-30T18:49:05.534Z,5.65
2023-04-30T18:52:07.649Z,5.35
2023-04-30T18:55:11.786Z,5.87
2023-04-30T18:58:13.845Z,5.43
2023-04-30T19:01:16.167Z,5.70
2023-04-30T19:04:18.338Z,5.47
2023-04-30T19:07:20.395Z,6.38
2023-04-30T19:10:22.428Z,5.33
2023-04-30T19:13:24.563Z,5.13
2023-04-30T19:16:26.642Z,4.35
2023-04-30T19:19:28.711Z,4.00
2023-04-30T19:22:30.760Z,4.05
2023-04-30T19:25:32.774Z,4.13
2023-04-30T19:28:34.770Z,4.20
2023-04-30T19:31:36.982Z,5.25
2023-04-30T19:34:39.127Z,5.05
2023-04-30T19:37:41.221Z,4.50
2023-04-30T19:41:01.387Z,4.80
2023-04-30T19:44:03.420Z,5.30
2023-04-30T19:47:05.514Z,6.07
2023-04-30T19:50:08.022Z,4.97
2023-04-30T19:53:10.150Z,5.53
2023-04-30T19:56:12.482Z,4.87
2023-04-30T19:59:14.586Z,4.85
2023-04-30T20:02:16.714Z,4.78
2023-04-30T20:05:18.878Z,4.93
2023-04-30T20:08:22.037Z,4.95
2023-04-30T20:11:24.857Z,5.47
2023-04-30T20:14:27.349Z,5.28
2023-04-30T20:17:29.490Z,5.00
2023-04-30T20:20:31.788Z,4.47
2023-04-30T20:23:34.299Z,4.47
2023-04-30T20:26:36.732Z,4.77
2023-04-30T20:29:41.559Z,4.65
2023-04-30T20:32:43.654Z,4.22
2023-04-30T20:35:46.301Z,4.70
2023-04-30T20:38:48.769Z,4.77
2023-04-30T20:41:50.892Z,4.15
2023-04-30T20:44:56.263Z,5.03
2023-04-30T20:47:58.643Z,4.70
2023-04-30T20:51:00.756Z,5.20
2023-04-30T20:54:03.273Z,5.03
2023-04-30T20:57:05.580Z,4.85
2023-04-30T21:00:07.885Z,5.33
2023-04-30T21:03:10.203Z,5.17
2023-04-30T21:06:12.402Z,5.57
2023-04-30T21:09:14.682Z,5.07
2023-04-30T21:12:16.975Z,5.07
2023-04-30T21:15:19.078Z,5.60
2023-04-30T21:18:21.217Z,5.68
2023-04-30T21:21:23.790Z,5.68
2023-04-30T21:24:25.800Z,6.35
2023-04-30T21:27:28.113Z,6.10
2023-04-30T21:30:30.138Z,5.85
2023-04-30T21:33:32.380Z,6.28
2023-04-30T21:36:35.377Z,5.63
2023-04-30T21:39:37.541Z,5.30
2023-04-30T21:42:39.610Z,5.57
2023-04-30T21:45:43.418Z,5.35
2023-04-30T21:48:48.358Z,6.05
2023-04-30T21:51:50.396Z,6.90
2023-04-30T21:54:52.434Z,6.97
2023-04-30T21:57:54.630Z,6.10
2023-04-30T22:00:56.574Z,5.83
2023-04-30T22:03:58.907Z,6.38
2023-04-30T22:07:01.118Z,6.00
2023-04-30T22:10:05.815Z,6.00
2023-04-30T22:13:07.839Z,5.90
2023-04-30T22:16:09.844Z,7.53
2023-04-30T22:19:11.866Z,6.63
2023-04-30T22:22:13.932Z,6.13
2023-04-30T22:25:17.659Z,7.07
2023-04-30T22:28:21.027Z,7.50
2023-04-30T22:31:23.197Z,5.85
2023-04-30T22:34:25.659Z,6.18
2023-04-30T22:37:27.633Z,7.97
2023-04-30T22:40:29.890Z,6.25
2023-04-30T22:43:32.043Z,7.32
2023-04-30T22:46:36.884Z,7.18
2023-04-30T22:49:39.068Z,6.77
2023-04-30T22:52:41.156Z,6.60
2023-04-30T22:55:43.363Z,6.88
2023-04-30T22:58:45.492Z,8.30
2023-04-30T23:01:47.700Z,7.00
2023-04-30T23:04:49.824Z,6.88
2023-04-30T23:07:52.275Z,7.00
2023-04-30T23:10:55.723Z,8.45
2023-04-30T23:13:57.817Z,8.50
2023-04-30T23:17:00.748Z,7.72
2023-04-30T23:20:03.276Z,8.13
2023-04-30T23:23:05.836Z,8.20
2023-04-30T23:26:07.850Z,10.00
2023-04-30T23:29:09.978Z,9.18
2023-04-30T23:32:12.347Z,9.23
2023-04-30T23:35:14.531Z,8.32
2023-04-30T23:38:16.567Z,8.82
2023-04-30T23:41:19.012Z,8.70
2023-04-30T23:44:21.818Z,8.60
2023-04-30T23:47:24.156Z,8.10
2023-04-30T23:50:26.495Z,6.88
2023-04-30T23:53:29.020Z,7.50
2023-04-30T23:56:31.053Z,7.50
2023-04-30T23:59:33.369Z,7.10
